sensor_id;sensor_type;location;lat;lon;timestamp;P1;durP1;ratioP1;P2;durP2;ratioP2
38379;SDS011;38377;47.418;18.882;2023-02-28T00:01:00;13.63;;;8.70;;
38379;SDS011;38377;47.418;18.882;2023-02-28T00:03:26;12.40;;;8.00;;
38379;SDS011;38377;47.418;18.882;2023-02-28T00:05:51;10.80;;;7.90;;
38379;SDS011;38377;47.418;18.882;2023-02-28T00:08:17;12.20;;;7.83;;
38379;SDS011;38377;47.418;18.882;2023-02-28T00:10:43;12.13;;;7.60;;
38379;SDS011;38377;47.418;18.882;2023-02-28T00:13:08;11.10;;;7.00;;
38379;SDS011;38377;47.418;18.882;2023-02-28T00:15:34;12.23;;;7.87;;
38379;SDS011;38377;47.418;18.882;2023-02-28T00:18:00;9.27;;;6.83;;
38379;SDS011;38377;47.418;18.882;2023-02-28T00:20:26;10.97;;;7.90;;
38379;SDS011;38377;47.418;18.882;2023-02-28T00:22:52;12.13;;;6.80;;
38379;SDS011;38377;47.418;18.882;2023-02-28T00:25:20;10.00;;;7.07;;
38379;SDS011;38377;47.418;18.882;2023-02-28T00:27:47;10.63;;;7.20;;
38379;SDS011;38377;47.418;18.882;2023-02-28T00:30:15;10.73;;;6.47;;
38379;SDS011;38377;47.418;18.882;2023-02-28T00:32:42;10.83;;;7.00;;
38379;SDS011;38377;47.418;18.882;2023-02-28T00:35:09;10.70;;;6.67;;
38379;SDS011;38377;47.418;18.882;2023-02-28T00:37:35;10.77;;;6.30;;
38379;SDS011;38377;47.418;18.882;2023-02-28T00:40:01;8.37;;;6.40;;
38379;SDS011;38377;47.418;18.882;2023-02-28T00:42:29;9.73;;;6.77;;
38379;SDS011;38377;47.418;18.882;2023-02-28T00:44:55;9.87;;;7.57;;
38379;SDS011;38377;47.418;18.882;2023-02-28T00:47:20;9.77;;;6.47;;
38379;SDS011;38377;47.418;18.882;2023-02-28T00:49:46;12.07;;;7.73;;
38379;SDS011;38377;47.418;18.882;2023-02-28T00:52:12;8.80;;;6.27;;
38379;SDS011;38377;47.418;18.882;2023-02-28T00:54:38;11.57;;;7.03;;
38379;SDS011;38377;47.418;18.882;2023-02-28T00:57:04;10.47;;;7.27;;
38379;SDS011;38377;47.418;18.882;2023-02-28T00:59:29;12.43;;;6.77;;
38379;SDS011;38377;47.418;18.882;2023-02-28T01:01:55;11.03;;;6.90;;
38379;SDS011;38377;47.418;18.882;2023-02-28T01:04:21;12.23;;;7.30;;
38379;SDS011;38377;47.418;18.882;2023-02-28T01:06:46;10.73;;;6.80;;
38379;SDS011;38377;47.418;18.882;2023-02-28T01:09:12;12.47;;;7.80;;
38379;SDS011;38377;47.418;18.882;2023-02-28T01:11:38;11.87;;;7.23;;
38379;SDS011;38377;47.418;18.882;2023-02-28T01:14:05;9.77;;;7.07;;
38379;SDS011;38377;47.418;18.882;2023-02-28T01:16:31;9.47;;;7.27;;
38379;SDS011;38377;47.418;18.882;2023-02-28T01:18:57;15.20;;;8.00;;
38379;SDS011;38377;47.418;18.882;2023-02-28T01:21:23;10.77;;;7.40;;
38379;SDS011;38377;47.418;18.882;2023-02-28T01:23:49;13.97;;;7.70;;
38379;SDS011;38377;47.418;18.882;2023-02-28T01:26:16;12.67;;;7.77;;
38379;SDS011;38377;47.418;18.882;2023-02-28T01:28:44;12.03;;;7.33;;
38379;SDS011;38377;47.418;18.882;2023-02-28T01:31:10;11.00;;;8.30;;
38379;SDS011;38377;47.418;18.882;2023-02-28T01:33:36;10.53;;;7.40;;
38379;SDS011;38377;47.418;18.882;2023-02-28T01:36:21;11.60;;;7.97;;
38379;SDS011;38377;47.418;18.882;2023-02-28T01:38:48;11.30;;;7.53;;
38379;SDS011;38377;47.418;18.882;2023-02-28T01:41:16;12.23;;;7.73;;
38379;SDS011;38377;47.418;18.882;2023-02-28T01:46:28;9.33;;;6.30;;
38379;SDS011;38377;47.418;18.882;2023-02-28T01:49:04;10.40;;;6.90;;
38379;SDS011;38377;47.418;18.882;2023-02-28T01:51:40;9.43;;;6.53;;
38379;SDS011;38377;47.418;18.882;2023-02-28T01:54:16;11.33;;;6.83;;
38379;SDS011;38377;47.418;18.882;2023-02-28T01:56:47;8.80;;;6.72;;
38379;SDS011;38377;47.418;18.882;2023-02-28T01:59:27;11.30;;;6.30;;
38379;SDS011;38377;47.418;18.882;2023-02-28T02:01:59;8.00;;;5.93;;
38379;SDS011;38377;47.418;18.882;2023-02-28T02:04:27;11.83;;;7.27;;
38379;SDS011;38377;47.418;18.882;2023-02-28T02:06:59;12.33;;;6.40;;
38379;SDS011;38377;47.418;18.882;2023-02-28T02:09:25;11.00;;;7.40;;
38379;SDS011;38377;47.418;18.882;2023-02-28T02:11:51;7.60;;;5.87;;
38379;SDS011;38377;47.418;18.882;2023-02-28T02:36:47;9.27;;;6.20;;
38379;SDS011;38377;47.418;18.882;2023-02-28T02:39:28;9.47;;;5.70;;
38379;SDS011;38377;47.418;18.882;2023-02-28T02:42:00;11.10;;;6.10;;
38379;SDS011;38377;47.418;18.882;2023-02-28T02:47:11;10.15;;;5.93;;
38379;SDS011;38377;47.418;18.882;2023-02-28T02:49:40;6.75;;;5.18;;
38379;SDS011;38377;47.418;18.882;2023-02-28T02:52:11;6.15;;;5.15;;
38379;SDS011;38377;47.418;18.882;2023-02-28T02:54:40;7.83;;;6.00;;
38379;SDS011;38377;47.418;18.882;2023-02-28T02:57:09;9.83;;;6.07;;
38379;SDS011;38377;47.418;18.882;2023-02-28T02:59:40;6.80;;;4.70;;
38379;SDS011;38377;47.418;18.882;2023-02-28T03:02:08;10.03;;;5.83;;
38379;SDS011;38377;47.418;18.882;2023-02-28T03:04:45;9.32;;;6.75;;
38379;SDS011;38377;47.418;18.882;2023-02-28T03:07:15;10.50;;;7.30;;
38379;SDS011;38377;47.418;18.882;2023-02-28T03:09:49;9.87;;;6.60;;
38379;SDS011;38377;47.418;18.882;2023-02-28T03:12:16;10.07;;;6.57;;
38379;SDS011;38377;47.418;18.882;2023-02-28T03:26:16;10.00;;;6.57;;
38379;SDS011;38377;47.418;18.882;2023-02-28T03:28:42;11.67;;;7.53;;
38379;SDS011;38377;47.418;18.882;2023-02-28T03:31:18;8.83;;;6.27;;
38379;SDS011;38377;47.418;18.882;2023-02-28T03:34:14;8.87;;;6.17;;
38379;SDS011;38377;47.418;18.882;2023-02-28T03:36:46;9.63;;;6.10;;
38379;SDS011;38377;47.418;18.882;2023-02-28T03:39:17;8.00;;;5.60;;
38379;SDS011;38377;47.418;18.882;2023-02-28T03:42:03;12.67;;;6.67;;
38379;SDS011;38377;47.418;18.882;2023-02-28T03:44:37;9.07;;;5.83;;
38379;SDS011;38377;47.418;18.882;2023-02-28T03:47:16;9.13;;;6.30;;
38379;SDS011;38377;47.418;18.882;2023-02-28T03:50:05;9.17;;;6.37;;
38379;SDS011;38377;47.418;18.882;2023-02-28T03:52:38;8.83;;;6.07;;
38379;SDS011;38377;47.418;18.882;2023-02-28T03:57:45;8.27;;;5.57;;
38379;SDS011;38377;47.418;18.882;2023-02-28T04:02:57;8.43;;;5.67;;
38379;SDS011;38377;47.418;18.882;2023-02-28T04:05:24;9.90;;;6.17;;
38379;SDS011;38377;47.418;18.882;2023-02-28T04:07:50;10.60;;;5.97;;
38379;SDS011;38377;47.418;18.882;2023-02-28T04:10:16;11.03;;;6.33;;
38379;SDS011;38377;47.418;18.882;2023-02-28T04:12:42;8.93;;;5.73;;
38379;SDS011;38377;47.418;18.882;2023-02-28T04:15:08;8.77;;;5.53;;
38379;SDS011;38377;47.418;18.882;2023-02-28T04:17:35;8.73;;;5.80;;
38379;SDS011;38377;47.418;18.882;2023-02-28T04:20:01;8.23;;;5.27;;
38379;SDS011;38377;47.418;18.882;2023-02-28T04:22:28;9.03;;;5.93;;
38379;SDS011;38377;47.418;18.882;2023-02-28T04:24:53;7.70;;;5.27;;
38379;SDS011;38377;47.418;18.882;2023-02-28T04:27:20;8.73;;;5.70;;
38379;SDS011;38377;47.418;18.882;2023-02-28T04:29:46;7.77;;;5.53;;
38379;SDS011;38377;47.418;18.882;2023-02-28T04:32:12;9.07;;;6.00;;
38379;SDS011;38377;47.418;18.882;2023-02-28T04:34:38;10.03;;;5.87;;
38379;SDS011;38377;47.418;18.882;2023-02-28T04:37:04;8.20;;;5.60;;
38379;SDS011;38377;47.418;18.882;2023-02-28T04:39:30;15.00;;;7.17;;
38379;SDS011;38377;47.418;18.882;2023-02-28T04:41:59;7.60;;;5.63;;
38379;SDS011;38377;47.418;18.882;2023-02-28T04:44:25;10.23;;;6.33;;
38379;SDS011;38377;47.418;18.882;2023-02-28T04:46:50;10.97;;;6.07;;
38379;SDS011;38377;47.418;18.882;2023-02-28T04:49:16;9.20;;;6.23;;
38379;SDS011;38377;47.418;18.882;2023-02-28T04:51:42;9.60;;;6.57;;
38379;SDS011;38377;47.418;18.882;2023-02-28T04:54:07;11.40;;;6.87;;
38379;SDS011;38377;47.418;18.882;2023-02-28T04:56:33;13.50;;;7.37;;
38379;SDS011;38377;47.418;18.882;2023-02-28T04:58:59;9.90;;;7.30;;
38379;SDS011;38377;47.418;18.882;2023-02-28T05:01:26;9.77;;;6.63;;
38379;SDS011;38377;47.418;18.882;2023-02-28T05:03:55;10.40;;;7.37;;
38379;SDS011;38377;47.418;18.882;2023-02-28T05:06:23;9.63;;;6.73;;
38379;SDS011;38377;47.418;18.882;2023-02-28T05:08:51;9.13;;;6.60;;
38379;SDS011;38377;47.418;18.882;2023-02-28T05:11:19;10.47;;;7.10;;
38379;SDS011;38377;47.418;18.882;2023-02-28T05:13:50;12.17;;;7.70;;
38379;SDS011;38377;47.418;18.882;2023-02-28T05:16:17;10.23;;;6.60;;
38379;SDS011;38377;47.418;18.882;2023-02-28T05:18:43;10.87;;;7.80;;
38379;SDS011;38377;47.418;18.882;2023-02-28T05:21:21;14.43;;;7.03;;
38379;SDS011;38377;47.418;18.882;2023-02-28T05:23:54;14.57;;;7.60;;
38379;SDS011;38377;47.418;18.882;2023-02-28T05:26:21;10.13;;;6.73;;
38379;SDS011;38377;47.418;18.882;2023-02-28T05:28:47;11.77;;;6.93;;
38379;SDS011;38377;47.418;18.882;2023-02-28T05:31:13;10.23;;;6.13;;
38379;SDS011;38377;47.418;18.882;2023-02-28T05:33:39;13.53;;;7.60;;
38379;SDS011;38377;47.418;18.882;2023-02-28T05:36:04;12.87;;;6.97;;
38379;SDS011;38377;47.418;18.882;2023-02-28T05:38:31;8.90;;;6.30;;
38379;SDS011;38377;47.418;18.882;2023-02-28T05:40:57;14.50;;;7.20;;
38379;SDS011;38377;47.418;18.882;2023-02-28T05:43:23;9.13;;;5.90;;
38379;SDS011;38377;47.418;18.882;2023-02-28T05:45:49;10.30;;;6.73;;
38379;SDS011;38377;47.418;18.882;2023-02-28T05:48:14;11.63;;;7.40;;
38379;SDS011;38377;47.418;18.882;2023-02-28T05:50:41;14.37;;;8.20;;
38379;SDS011;38377;47.418;18.882;2023-02-28T05:53:07;10.57;;;6.70;;
38379;SDS011;38377;47.418;18.882;2023-02-28T05:55:33;12.57;;;7.57;;
38379;SDS011;38377;47.418;18.882;2023-02-28T05:58:01;11.03;;;7.27;;
38379;SDS011;38377;47.418;18.882;2023-02-28T06:00:26;10.97;;;7.40;;
38379;SDS011;38377;47.418;18.882;2023-02-28T06:02:52;12.83;;;6.90;;
38379;SDS011;38377;47.418;18.882;2023-02-28T06:05:21;10.10;;;6.27;;
38379;SDS011;38377;47.418;18.882;2023-02-28T06:07:47;9.90;;;6.70;;
38379;SDS011;38377;47.418;18.882;2023-02-28T06:10:13;11.80;;;7.07;;
38379;SDS011;38377;47.418;18.882;2023-02-28T06:12:39;9.87;;;7.07;;
38379;SDS011;38377;47.418;18.882;2023-02-28T06:15:06;10.43;;;7.57;;
38379;SDS011;38377;47.418;18.882;2023-02-28T06:17:36;11.70;;;7.27;;
38379;SDS011;38377;47.418;18.882;2023-02-28T06:20:02;14.43;;;7.20;;
38379;SDS011;38377;47.418;18.882;2023-02-28T06:22:28;14.23;;;6.93;;
38379;SDS011;38377;47.418;18.882;2023-02-28T06:24:54;13.50;;;6.83;;
38379;SDS011;38377;47.418;18.882;2023-02-28T06:27:21;11.13;;;7.17;;
38379;SDS011;38377;47.418;18.882;2023-02-28T06:29:47;10.80;;;7.10;;
38379;SDS011;38377;47.418;18.882;2023-02-28T06:32:13;11.40;;;6.87;;
38379;SDS011;38377;47.418;18.882;2023-02-28T06:34:41;11.20;;;7.23;;
38379;SDS011;38377;47.418;18.882;2023-02-28T06:37:07;15.77;;;6.43;;
38379;SDS011;38377;47.418;18.882;2023-02-28T06:39:32;10.60;;;6.77;;
38379;SDS011;38377;47.418;18.882;2023-02-28T06:41:59;10.80;;;6.90;;
38379;SDS011;38377;47.418;18.882;2023-02-28T06:44:24;9.10;;;6.77;;
38379;SDS011;38377;47.418;18.882;2023-02-28T06:46:50;11.07;;;6.93;;
38379;SDS011;38377;47.418;18.882;2023-02-28T06:49:16;10.90;;;7.70;;
38379;SDS011;38377;47.418;18.882;2023-02-28T06:51:43;10.73;;;6.53;;
38379;SDS011;38377;47.418;18.882;2023-02-28T06:54:12;9.67;;;6.17;;
38379;SDS011;38377;47.418;18.882;2023-02-28T06:56:38;9.93;;;6.00;;
38379;SDS011;38377;47.418;18.882;2023-02-28T06:59:04;7.47;;;5.57;;
38379;SDS011;38377;47.418;18.882;2023-02-28T07:01:30;10.13;;;6.13;;
38379;SDS011;38377;47.418;18.882;2023-02-28T07:03:57;10.33;;;5.63;;
38379;SDS011;38377;47.418;18.882;2023-02-28T07:06:25;9.67;;;6.27;;
38379;SDS011;38377;47.418;18.882;2023-02-28T07:08:51;11.90;;;5.83;;
38379;SDS011;38377;47.418;18.882;2023-02-28T07:11:18;8.90;;;5.70;;
38379;SDS011;38377;47.418;18.882;2023-02-28T07:13:47;7.77;;;5.27;;
38379;SDS011;38377;47.418;18.882;2023-02-28T07:16:14;11.63;;;5.90;;
38379;SDS011;38377;47.418;18.882;2023-02-28T07:18:39;8.13;;;5.47;;
38379;SDS011;38377;47.418;18.882;2023-02-28T07:21:06;10.67;;;6.23;;
38379;SDS011;38377;47.418;18.882;2023-02-28T07:23:34;10.27;;;6.23;;
38379;SDS011;38377;47.418;18.882;2023-02-28T07:26:00;9.30;;;5.33;;
38379;SDS011;38377;47.418;18.882;2023-02-28T07:28:26;7.40;;;5.43;;
38379;SDS011;38377;47.418;18.882;2023-02-28T07:30:52;7.97;;;5.47;;
38379;SDS011;38377;47.418;18.882;2023-02-28T07:33:18;13.23;;;6.40;;
38379;SDS011;38377;47.418;18.882;2023-02-28T07:35:44;10.23;;;5.90;;
38379;SDS011;38377;47.418;18.882;2023-02-28T07:38:10;10.40;;;5.87;;
38379;SDS011;38377;47.418;18.882;2023-02-28T07:40:36;9.07;;;4.90;;
38379;SDS011;38377;47.418;18.882;2023-02-28T07:43:02;8.20;;;5.50;;
38379;SDS011;38377;47.418;18.882;2023-02-28T07:45:29;8.70;;;5.60;;
38379;SDS011;38377;47.418;18.882;2023-02-28T07:47:56;11.40;;;5.87;;
38379;SDS011;38377;47.418;18.882;2023-02-28T07:50:22;8.33;;;4.90;;
38379;SDS011;38377;47.418;18.882;2023-02-28T07:52:48;10.20;;;5.10;;
38379;SDS011;38377;47.418;18.882;2023-02-28T07:55:14;8.67;;;5.43;;
38379;SDS011;38377;47.418;18.882;2023-02-28T07:57:41;9.27;;;5.40;;
38379;SDS011;38377;47.418;18.882;2023-02-28T08:00:08;8.77;;;4.77;;
38379;SDS011;38377;47.418;18.882;2023-02-28T08:02:35;8.40;;;6.07;;
38379;SDS011;38377;47.418;18.882;2023-02-28T08:05:01;9.20;;;6.03;;
38379;SDS011;38377;47.418;18.882;2023-02-28T08:07:27;10.57;;;5.80;;
38379;SDS011;38377;47.418;18.882;2023-02-28T08:09:53;5.57;;;3.87;;
38379;SDS011;38377;47.418;18.882;2023-02-28T08:12:18;7.00;;;4.00;;
38379;SDS011;38377;47.418;18.882;2023-02-28T08:14:45;6.83;;;4.77;;
38379;SDS011;38377;47.418;18.882;2023-02-28T08:17:10;5.53;;;3.60;;
38379;SDS011;38377;47.418;18.882;2023-02-28T08:19:36;6.50;;;4.37;;
38379;SDS011;38377;47.418;18.882;2023-02-28T08:22:02;4.33;;;3.37;;
38379;SDS011;38377;47.418;18.882;2023-02-28T08:24:28;7.13;;;4.57;;
38379;SDS011;38377;47.418;18.882;2023-02-28T08:26:54;4.07;;;3.33;;
38379;SDS011;38377;47.418;18.882;2023-02-28T08:29:20;9.43;;;4.13;;
38379;SDS011;38377;47.418;18.882;2023-02-28T08:31:46;10.23;;;3.90;;
38379;SDS011;38377;47.418;18.882;2023-02-28T08:34:13;4.97;;;3.37;;
38379;SDS011;38377;47.418;18.882;2023-02-28T08:36:40;6.70;;;4.53;;
38379;SDS011;38377;47.418;18.882;2023-02-28T08:39:07;6.20;;;4.10;;
38379;SDS011;38377;47.418;18.882;2023-02-28T08:41:34;7.53;;;4.00;;
38379;SDS011;38377;47.418;18.882;2023-02-28T08:43:59;43.37;;;7.60;;
38379;SDS011;38377;47.418;18.882;2023-02-28T08:46:26;6.00;;;3.67;;
38379;SDS011;38377;47.418;18.882;2023-02-28T08:48:52;5.43;;;4.07;;
38379;SDS011;38377;47.418;18.882;2023-02-28T08:51:18;9.07;;;4.93;;
38379;SDS011;38377;47.418;18.882;2023-02-28T08:53:51;7.37;;;5.00;;
38379;SDS011;38377;47.418;18.882;2023-02-28T08:56:18;7.50;;;5.20;;
38379;SDS011;38377;47.418;18.882;2023-02-28T08:58:45;7.43;;;4.40;;
38379;SDS011;38377;47.418;18.882;2023-02-28T09:01:15;7.47;;;3.65;;
38379;SDS011;38377;47.418;18.882;2023-02-28T09:03:45;12.30;;;6.33;;
38379;SDS011;38377;47.418;18.882;2023-02-28T09:06:13;8.87;;;4.53;;
38379;SDS011;38377;47.418;18.882;2023-02-28T09:08:39;6.07;;;4.67;;
38379;SDS011;38377;47.418;18.882;2023-02-28T09:11:05;7.00;;;4.23;;
38379;SDS011;38377;47.418;18.882;2023-02-28T09:13:31;7.17;;;4.80;;
38379;SDS011;38377;47.418;18.882;2023-02-28T09:15:58;8.10;;;4.93;;
38379;SDS011;38377;47.418;18.882;2023-02-28T09:18:24;6.13;;;4.80;;
38379;SDS011;38377;47.418;18.882;2023-02-28T09:20:51;7.53;;;5.10;;
38379;SDS011;38377;47.418;18.882;2023-02-28T09:23:17;14.97;;;8.17;;
38379;SDS011;38377;47.418;18.882;2023-02-28T09:26:01;10.47;;;5.20;;
38379;SDS011;38377;47.418;18.882;2023-02-28T09:28:26;15.17;;;7.60;;
38379;SDS011;38377;47.418;18.882;2023-02-28T09:30:53;7.73;;;5.13;;
38379;SDS011;38377;47.418;18.882;2023-02-28T09:33:19;6.37;;;4.83;;
38379;SDS011;38377;47.418;18.882;2023-02-28T09:35:49;7.10;;;4.40;;
38379;SDS011;38377;47.418;18.882;2023-02-28T09:38:16;7.10;;;4.70;;
38379;SDS011;38377;47.418;18.882;2023-02-28T09:40:53;8.47;;;5.07;;
38379;SDS011;38377;47.418;18.882;2023-02-28T09:43:25;6.73;;;5.17;;
38379;SDS011;38377;47.418;18.882;2023-02-28T09:45:59;6.90;;;5.10;;
38379;SDS011;38377;47.418;18.882;2023-02-28T09:48:46;5.73;;;3.80;;
38379;SDS011;38377;47.418;18.882;2023-02-28T09:53:54;6.47;;;4.50;;
38379;SDS011;38377;47.418;18.882;2023-02-28T09:59:13;9.20;;;5.00;;
38379;SDS011;38377;47.418;18.882;2023-02-28T10:02:04;9.95;;;5.05;;
38379;SDS011;38377;47.418;18.882;2023-02-28T10:04:51;9.07;;;4.60;;
38379;SDS011;38377;47.418;18.882;2023-02-28T10:10:24;7.33;;;4.70;;
38379;SDS011;38377;47.418;18.882;2023-02-28T10:12:58;9.53;;;4.87;;
38379;SDS011;38377;47.418;18.882;2023-02-28T10:15:28;9.83;;;4.53;;
38379;SDS011;38377;47.418;18.882;2023-02-28T10:17:58;7.30;;;5.40;;
38379;SDS011;38377;47.418;18.882;2023-02-28T10:20:37;9.97;;;5.43;;
38379;SDS011;38377;47.418;18.882;2023-02-28T10:23:23;6.37;;;4.33;;
38379;SDS011;38377;47.418;18.882;2023-02-28T10:26:12;6.60;;;4.60;;
38379;SDS011;38377;47.418;18.882;2023-02-28T10:28:38;5.73;;;4.47;;
38379;SDS011;38377;47.418;18.882;2023-02-28T10:31:04;6.20;;;4.10;;
38379;SDS011;38377;47.418;18.882;2023-02-28T10:33:33;9.67;;;5.23;;
38379;SDS011;38377;47.418;18.882;2023-02-28T10:36:00;6.90;;;4.70;;
38379;SDS011;38377;47.418;18.882;2023-02-28T10:38:34;8.17;;;4.70;;
38379;SDS011;38377;47.418;18.882;2023-02-28T10:43:41;6.73;;;4.50;;
38379;SDS011;38377;47.418;18.882;2023-02-28T10:51:37;6.27;;;4.67;;
38379;SDS011;38377;47.418;18.882;2023-02-28T10:54:04;9.90;;;5.53;;
38379;SDS011;38377;47.418;18.882;2023-02-28T10:56:31;10.37;;;5.80;;
38379;SDS011;38377;47.418;18.882;2023-02-28T10:58:58;6.63;;;5.00;;
38379;SDS011;38377;47.418;18.882;2023-02-28T11:01:47;7.07;;;5.07;;
38379;SDS011;38377;47.418;18.882;2023-02-28T11:07:01;5.70;;;4.50;;
38379;SDS011;38377;47.418;18.882;2023-02-28T11:09:35;5.77;;;4.60;;
38379;SDS011;38377;47.418;18.882;2023-02-28T11:12:17;6.40;;;4.23;;
38379;SDS011;38377;47.418;18.882;2023-02-28T11:15:00;5.73;;;4.40;;
38379;SDS011;38377;47.418;18.882;2023-02-28T11:17:30;8.47;;;4.47;;
38379;SDS011;38377;47.418;18.882;2023-02-28T11:19:58;6.53;;;4.28;;
38379;SDS011;38377;47.418;18.882;2023-02-28T11:22:33;7.28;;;4.70;;
38379;SDS011;38377;47.418;18.882;2023-02-28T11:25:06;9.48;;;6.70;;
38379;SDS011;38377;47.418;18.882;2023-02-28T11:30:44;10.93;;;5.33;;
38379;SDS011;38377;47.418;18.882;2023-02-28T11:38:41;6.97;;;4.57;;
38379;SDS011;38377;47.418;18.882;2023-02-28T11:49:02;6.22;;;4.03;;
38379;SDS011;38377;47.418;18.882;2023-02-28T11:57:56;6.87;;;4.60;;
38379;SDS011;38377;47.418;18.882;2023-02-28T12:06:20;6.43;;;4.30;;
38379;SDS011;38377;47.418;18.882;2023-02-28T12:19:42;8.48;;;5.82;;
38379;SDS011;38377;47.418;18.882;2023-02-28T12:22:32;9.00;;;6.13;;
38379;SDS011;38377;47.418;18.882;2023-02-28T12:25:22;11.73;;;8.50;;
38379;SDS011;38377;47.418;18.882;2023-02-28T12:27:50;6.13;;;4.75;;
38379;SDS011;38377;47.418;18.882;2023-02-28T12:30:22;8.90;;;4.32;;
38379;SDS011;38377;47.418;18.882;2023-02-28T12:32:56;10.98;;;5.70;;
38379;SDS011;38377;47.418;18.882;2023-02-28T12:35:33;8.15;;;5.30;;
38379;SDS011;38377;47.418;18.882;2023-02-28T12:41:03;14.80;;;11.15;;
38379;SDS011;38377;47.418;18.882;2023-02-28T12:43:36;21.75;;;11.75;;
38379;SDS011;38377;47.418;18.882;2023-02-28T12:46:32;8.67;;;5.53;;
38379;SDS011;38377;47.418;18.882;2023-02-28T12:48:59;10.45;;;6.65;;
38379;SDS011;38377;47.418;18.882;2023-02-28T12:51:30;10.77;;;4.90;;
38379;SDS011;38377;47.418;18.882;2023-02-28T12:54:11;7.18;;;5.20;;
38379;SDS011;38377;47.418;18.882;2023-02-28T12:56:46;8.88;;;6.07;;
38379;SDS011;38377;47.418;18.882;2023-02-28T13:02:15;6.78;;;4.70;;
38379;SDS011;38377;47.418;18.882;2023-02-28T13:07:34;7.82;;;4.82;;
38379;SDS011;38377;47.418;18.882;2023-02-28T13:10:20;8.23;;;5.32;;
38379;SDS011;38377;47.418;18.882;2023-02-28T13:12:48;12.38;;;7.85;;
38379;SDS011;38377;47.418;18.882;2023-02-28T13:15:19;9.43;;;5.88;;
38379;SDS011;38377;47.418;18.882;2023-02-28T13:17:53;9.75;;;5.15;;
38379;SDS011;38377;47.418;18.882;2023-02-28T13:20:29;8.77;;;4.72;;
38379;SDS011;38377;47.418;18.882;2023-02-28T13:23:01;12.52;;;6.13;;
38379;SDS011;38377;47.418;18.882;2023-02-28T13:27:59;9.75;;;6.18;;
38379;SDS011;38377;47.418;18.882;2023-02-28T13:33:40;7.00;;;5.20;;
38379;SDS011;38377;47.418;18.882;2023-02-28T13:39:02;8.60;;;5.72;;
38379;SDS011;38377;47.418;18.882;2023-02-28T13:41:48;8.98;;;5.78;;
38379;SDS011;38377;47.418;18.882;2023-02-28T13:44:21;14.05;;;7.10;;
38379;SDS011;38377;47.418;18.882;2023-02-28T13:51:54;7.20;;;5.20;;
38379;SDS011;38377;47.418;18.882;2023-02-28T14:06:08;10.20;;;5.60;;
38379;SDS011;38377;47.418;18.882;2023-02-28T14:11:48;14.63;;;8.18;;
38379;SDS011;38377;47.418;18.882;2023-02-28T14:16:59;8.17;;;5.40;;
38379;SDS011;38377;47.418;18.882;2023-02-28T14:19:28;8.27;;;5.53;;
38379;SDS011;38377;47.418;18.882;2023-02-28T14:27:17;9.87;;;6.07;;
38379;SDS011;38377;47.418;18.882;2023-02-28T14:38:29;13.93;;;7.85;;
38379;SDS011;38377;47.418;18.882;2023-02-28T14:41:14;14.35;;;7.55;;
38379;SDS011;38377;47.418;18.882;2023-02-28T14:43:50;8.57;;;5.63;;
38379;SDS011;38377;47.418;18.882;2023-02-28T14:46:20;8.98;;;4.88;;
38379;SDS011;38377;47.418;18.882;2023-02-28T14:48:49;22.88;;;5.85;;
38379;SDS011;38377;47.418;18.882;2023-02-28T14:51:22;9.70;;;5.97;;
38379;SDS011;38377;47.418;18.882;2023-02-28T14:53:50;9.57;;;6.38;;
38379;SDS011;38377;47.418;18.882;2023-02-28T14:56:22;17.03;;;8.20;;
38379;SDS011;38377;47.418;18.882;2023-02-28T14:58:56;8.10;;;6.20;;
38379;SDS011;38377;47.418;18.882;2023-02-28T15:01:23;22.65;;;11.05;;
38379;SDS011;38377;47.418;18.882;2023-02-28T15:03:56;22.60;;;11.05;;
38379;SDS011;38377;47.418;18.882;2023-02-28T15:06:23;15.68;;;6.18;;
38379;SDS011;38377;47.418;18.882;2023-02-28T15:11:35;8.30;;;5.18;;
38379;SDS011;38377;47.418;18.882;2023-02-28T15:14:04;9.00;;;5.33;;
38379;SDS011;38377;47.418;18.882;2023-02-28T15:16:37;10.47;;;6.83;;
38379;SDS011;38377;47.418;18.882;2023-02-28T15:21:33;18.20;;;6.07;;
38379;SDS011;38377;47.418;18.882;2023-02-28T15:26:59;10.67;;;4.97;;
38379;SDS011;38377;47.418;18.882;2023-02-28T15:29:29;7.60;;;4.80;;
38379;SDS011;38377;47.418;18.882;2023-02-28T15:32:01;7.15;;;4.63;;
38379;SDS011;38377;47.418;18.882;2023-02-28T15:34:36;7.80;;;5.30;;
38379;SDS011;38377;47.418;18.882;2023-02-28T15:37:52;7.83;;;5.17;;
38379;SDS011;38377;47.418;18.882;2023-02-28T15:39:56;10.43;;;5.07;;
38379;SDS011;38377;47.418;18.882;2023-02-28T15:42:29;10.33;;;5.23;;
38379;SDS011;38377;47.418;18.882;2023-02-28T15:44:56;10.43;;;5.30;;
38379;SDS011;38377;47.418;18.882;2023-02-28T15:47:26;11.53;;;5.17;;
38379;SDS011;38377;47.418;18.882;2023-02-28T15:49:58;7.90;;;5.10;;
38379;SDS011;38377;47.418;18.882;2023-02-28T15:57:44;12.07;;;6.93;;
38379;SDS011;38377;47.418;18.882;2023-02-28T16:00:14;9.33;;;6.00;;
38379;SDS011;38377;47.418;18.882;2023-02-28T16:02:43;12.53;;;6.80;;
38379;SDS011;38377;47.418;18.882;2023-02-28T16:07:35;8.67;;;5.93;;
38379;SDS011;38377;47.418;18.882;2023-02-28T16:10:03;10.47;;;6.50;;
38379;SDS011;38377;47.418;18.882;2023-02-28T16:12:31;21.83;;;9.97;;
38379;SDS011;38377;47.418;18.882;2023-02-28T16:14:59;12.00;;;7.27;;
38379;SDS011;38377;47.418;18.882;2023-02-28T16:17:32;12.83;;;7.80;;
38379;SDS011;38377;47.418;18.882;2023-02-28T16:20:00;18.50;;;9.50;;
38379;SDS011;38377;47.418;18.882;2023-02-28T16:22:30;29.67;;;11.13;;
38379;SDS011;38377;47.418;18.882;2023-02-28T16:24:56;20.23;;;12.63;;
38379;SDS011;38377;47.418;18.882;2023-02-28T16:27:27;16.87;;;9.07;;
38379;SDS011;38377;47.418;18.882;2023-02-28T16:29:56;16.67;;;8.20;;
38379;SDS011;38377;47.418;18.882;2023-02-28T16:32:22;11.90;;;8.17;;
38379;SDS011;38377;47.418;18.882;2023-02-28T16:34:48;10.77;;;7.43;;
38379;SDS011;38377;47.418;18.882;2023-02-28T16:37:15;58.80;;;11.57;;
38379;SDS011;38377;47.418;18.882;2023-02-28T16:39:42;15.30;;;8.07;;
38379;SDS011;38377;47.418;18.882;2023-02-28T16:42:11;55.80;;;10.53;;
38379;SDS011;38377;47.418;18.882;2023-02-28T16:44:41;15.80;;;8.97;;
38379;SDS011;38377;47.418;18.882;2023-02-28T16:47:09;18.50;;;10.23;;
38379;SDS011;38377;47.418;18.882;2023-02-28T16:49:36;17.03;;;9.90;;
38379;SDS011;38377;47.418;18.882;2023-02-28T16:52:01;17.67;;;9.97;;
38379;SDS011;38377;47.418;18.882;2023-02-28T16:54:27;13.67;;;8.87;;
38379;SDS011;38377;47.418;18.882;2023-02-28T16:56:53;15.47;;;8.43;;
38379;SDS011;38377;47.418;18.882;2023-02-28T16:59:21;18.87;;;8.07;;
38379;SDS011;38377;47.418;18.882;2023-02-28T17:01:49;15.20;;;8.63;;
38379;SDS011;38377;47.418;18.882;2023-02-28T17:04:16;16.23;;;9.20;;
38379;SDS011;38377;47.418;18.882;2023-02-28T17:06:42;13.87;;;9.67;;
38379;SDS011;38377;47.418;18.882;2023-02-28T17:09:10;17.40;;;10.57;;
38379;SDS011;38377;47.418;18.882;2023-02-28T17:11:41;14.03;;;9.13;;
38379;SDS011;38377;47.418;18.882;2023-02-28T17:14:08;16.40;;;9.90;;
38379;SDS011;38377;47.418;18.882;2023-02-28T17:16:34;15.90;;;10.63;;
38379;SDS011;38377;47.418;18.882;2023-02-28T17:19:05;13.63;;;8.95;;
38379;SDS011;38377;47.418;18.882;2023-02-28T17:21:32;11.70;;;8.40;;
38379;SDS011;38377;47.418;18.882;2023-02-28T17:23:59;12.97;;;9.33;;
38379;SDS011;38377;47.418;18.882;2023-02-28T17:26:25;12.73;;;8.63;;
38379;SDS011;38377;47.418;18.882;2023-02-28T17:28:53;13.93;;;8.63;;
38379;SDS011;38377;47.418;18.882;2023-02-28T17:31:23;17.27;;;9.60;;
38379;SDS011;38377;47.418;18.882;2023-02-28T17:33:50;16.57;;;10.47;;